Time;durP1;ratioP1;P1;durP2;ratioP2;P2;SDS_P1;SDS_P2;PMS_P1;PMS_P2;Temp;Humidity;BMP_temperature;BMP_pressure;BME280_temperature;BME280_humidity;BME280_pressure;Samples;Min_cycle;Max_cycle;Signal;HPM_P1;HPM_P2
2020/12/31 00:00:04;;;;;;;64.50;36.05;;;;;;;-1.57;83.97;98830.25;5077105;28;20052;-46
2020/12/31 00:02:52;;;;;;;67.03;31.95;;;;;;;-1.56;83.89;98831.09;5077626;28;20049;-46
2020/12/31 00:05:18;;;;;;;60.05;29.88;;;;;;;-1.57;83.65;98830.25;5076337;28;20494;-46
2020/12/31 00:07:43;;;;;;;56.45;30.83;;;;;;;-1.57;83.37;98831.97;5077388;28;20063;-46
2020/12/31 00:10:09;;;;;;;62.13;29.95;;;;;;;-1.60;83.29;98843.06;5077012;28;20048;-46
2020/12/31 00:12:35;;;;;;;63.50;29.20;;;;;;;-1.61;83.13;98841.34;5077018;28;20044;-46
2020/12/31 00:15:01;;;;;;;56.15;28.73;;;;;;;-1.62;83.06;98847.34;5076494;28;20124;-46
2020/12/31 00:17:27;;;;;;;57.15;29.05;;;;;;;-1.63;83.12;98849.88;5076944;28;20048;-46
2020/12/31 00:19:53;;;;;;;62.38;30.00;;;;;;;-1.68;83.20;98848.13;5077134;28;20063;-46
2020/12/31 00:22:19;;;;;;;58.30;28.88;;;;;;;-1.76;83.77;98843.78;5076818;28;20063;-46
2020/12/31 00:24:44;;;;;;;65.28;30.75;;;;;;;-1.76;84.24;98842.06;5077020;28;20044;-46
2020/12/31 00:27:10;;;;;;;67.13;31.50;;;;;;;-1.74;84.28;98855.78;5076705;28;20049;-46
2020/12/31 00:29:36;;;;;;;62.38;32.40;;;;;;;-1.77;83.72;98860.88;5076747;28;20037;-46
2020/12/31 00:32:02;;;;;;;66.45;30.27;;;;;;;-1.77;83.42;98867.75;5077948;28;20410;-46
2020/12/31 00:34:27;;;;;;;68.80;32.58;;;;;;;-1.74;83.34;98865.19;5076856;28;20101;-46
2020/12/31 00:36:53;;;;;;;62.17;30.15;;;;;;;-1.73;83.18;98869.47;5076815;28;20055;-46
2020/12/31 00:39:19;;;;;;;57.05;28.13;;;;;;;-1.76;83.18;98870.31;5076796;28;20059;-46
2020/12/31 00:41:45;;;;;;;62.03;30.17;;;;;;;-1.78;83.41;98871.16;5076750;28;20056;-46
2020/12/31 00:44:11;;;;;;;79.32;38.22;;;;;;;-1.81;83.24;98871.13;5076636;28;20452;-46
2020/12/31 00:46:36;;;;;;;87.32;41.20;;;;;;;-1.96;84.34;98877.81;5076613;28;20110;-46
2020/12/31 00:49:03;;;;;;;75.82;37.75;;;;;;;-1.91;84.25;98873.59;5076316;28;20059;-46
2020/12/31 00:51:29;;;;;;;73.80;35.22;;;;;;;-1.85;83.92;98882.19;5075780;28;20348;-46
2020/12/31 00:53:55;;;;;;;69.03;32.65;;;;;;;-1.86;83.50;98875.34;5075936;28;20044;-46
2020/12/31 00:56:23;;;;;;;72.68;35.75;;;;;;;-1.91;83.56;98873.59;5075467;28;20124;-46
2020/12/31 00:58:49;;;;;;;79.50;38.47;;;;;;;-1.99;83.62;98879.50;5059348;28;20094;-46
2020/12/31 01:01:15;;;;;;;76.00;36.35;;;;;;;-1.98;83.69;98879.53;5076137;28;20147;-46
2020/12/31 01:03:41;;;;;;;82.72;37.45;;;;;;;-2.02;83.33;98869.19;5076027;28;20041;-46
2020/12/31 01:06:07;;;;;;;73.93;36.95;;;;;;;-2.03;83.59;98868.34;5075583;28;20056;-46
2020/12/31 01:08:33;;;;;;;82.72;38.30;;;;;;;-2.12;83.45;98868.25;5076658;28;20041;-46
2020/12/31 01:10:59;;;;;;;85.20;37.78;;;;;;;-2.11;83.37;98869.97;5076606;28;20048;-46
2020/12/31 01:13:25;;;;;;;72.90;36.38;;;;;;;-2.11;83.33;98869.97;5076388;28;20111;-46
2020/12/31 01:15:50;;;;;;;81.15;38.10;;;;;;;-2.15;83.01;98868.19;5076612;28;20037;-46
2020/12/31 01:18:16;;;;;;;87.32;38.28;;;;;;;-2.14;83.05;98875.06;5075996;28;20045;-46
2020/12/31 01:20:42;;;;;;;90.07;42.35;;;;;;;-2.20;82.63;98875.00;5076845;28;20067;-47
2020/12/31 01:23:08;;;;;;;86.00;39.53;;;;;;;-2.22;82.76;98869.84;5075866;28;20044;-48
2020/12/31 01:25:34;;;;;;;80.45;39.17;;;;;;;-2.24;82.66;98871.53;5075680;28;20048;-46
2020/12/31 01:28:00;;;;;;;91.03;41.28;;;;;;;-2.32;82.42;98870.59;5076227;28;20044;-46
2020/12/31 01:30:26;;;;;;;90.25;40.13;;;;;;;-2.33;82.61;98873.16;5075090;28;20040;-46
2020/12/31 01:32:52;;;;;;;92.35;40.92;;;;;;;-2.35;82.45;98873.09;5075880;28;20044;-47
2020/12/31 01:35:19;;;;;;;96.70;40.90;;;;;;;-2.35;82.66;98878.25;5075284;28;20059;-46
2020/12/31 01:37:45;;;;;;;111.93;46.15;;;;;;;-2.36;82.95;98877.38;5076046;28;20102;-46
2020/12/31 01:40:10;;;;;;;108.45;47.88;;;;;;;-2.44;82.73;98878.13;5076116;28;20440;-46
2020/12/31 01:42:40;;;;;;;104.38;48.03;;;;;;;-2.50;82.69;98878.03;5075685;28;20082;-46
2020/12/31 01:45:06;;;;;;;107.15;45.85;;;;;;;-2.49;82.62;98882.34;5075735;28;20063;-46
2020/12/31 01:47:32;;;;;;;110.07;45.08;;;;;;;-2.56;82.83;98881.41;5075137;28;20053;-46
2020/12/31 01:49:58;;;;;;;116.68;45.05;;;;;;;-2.60;82.49;98883.09;5076790;28;20064;-46
2020/12/31 01:52:23;;;;;;;118.80;48.08;;;;;;;-2.54;82.73;98882.28;5076562;28;20055;-46
2020/12/31 01:54:49;;;;;;;102.68;42.22;;;;;;;-2.52;82.93;98890.88;5058772;28;20048;-46
2020/12/31 01:57:15;;;;;;;91.28;41.20;;;;;;;-2.50;83.27;98896.00;5075681;28;20452;-46
2020/12/31 01:59:41;;;;;;;86.50;38.70;;;;;;;-2.51;83.34;98892.56;5075493;28;20045;-46
2020/12/31 02:02:07;;;;;;;101.55;44.65;;;;;;;-2.53;83.03;98890.88;5075949;28;20068;-46
2020/12/31 02:04:36;;;;;;;101.05;44.05;;;;;;;-2.64;82.80;98891.56;5074925;28;20437;-46
2020/12/31 02:07:02;;;;;;;91.00;41.47;;;;;;;-2.64;82.96;98898.41;5074991;28;20110;-46
2020/12/31 02:09:29;;;;;;;100.32;39.35;;;;;;;-2.64;82.90;98898.41;5075812;28;20071;-46
2020/12/31 02:11:55;;;;;;;82.72;37.67;;;;;;;-2.64;82.99;98906.09;5076010;28;20041;-46
2020/12/31 02:14:21;;;;;;;92.75;40.28;;;;;;;-2.66;83.26;98907.78;5075549;28;20044;-46
2020/12/31 02:16:47;;;;;;;87.88;38.13;;;;;;;-2.68;83.31;98904.31;5075889;28;20131;-46
2020/12/31 02:19:14;;;;;;;85.25;36.60;;;;;;;-2.67;83.39;98906.03;5058275;28;20063;-46
2020/12/31 02:21:46;;;;;;;86.22;38.65;;;;;;;-2.68;83.43;98896.63;5074603;28;20047;-46
2020/12/31 02:24:12;;;;;;;84.97;38.40;;;;;;;-2.69;83.23;98900.06;5075644;28;20098;-46
2020/12/31 02:26:39;;;;;;;76.70;37.38;;;;;;;-2.71;83.48;98897.44;5075662;28;20059;-46
2020/12/31 02:29:05;;;;;;;76.85;36.33;;;;;;;-2.72;83.83;98900.88;5075400;28;20445;-46
2020/12/31 02:31:31;;;;;;;80.03;33.60;;;;;;;-2.70;83.96;98895.75;5075396;28;20041;-46
2020/12/31 02:33:57;;;;;;;75.13;34.70;;;;;;;-2.69;83.93;98894.94;5074725;28;20063;-46
2020/12/31 02:36:25;;;;;;;73.55;33.03;;;;;;;-2.72;83.82;98898.31;5075562;28;20139;-46
2020/12/31 02:38:51;;;;;;;66.70;32.42;;;;;;;-2.72;83.83;98900.88;5078228;28;20044;-46
2020/12/31 02:41:17;;;;;;;70.85;32.47;;;;;;;-2.72;83.61;98900.00;5078290;28;20067;-46
2020/12/31 02:43:43;;;;;;;74.43;35.03;;;;;;;-2.79;83.23;98904.19;5078120;28;20053;-46
2020/12/31 02:46:10;;;;;;;71.32;31.95;;;;;;;-2.73;83.48;98908.50;5079298;28;20037;-46
2020/12/31 02:48:36;;;;;;;73.47;34.00;;;;;;;-2.72;83.58;98906.00;5078051;28;20048;-46
2020/12/31 02:51:02;;;;;;;77.90;33.55;;;;;;;-2.73;83.48;98905.97;5078889;28;20113;-46
2020/12/31 02:53:27;;;;;;;67.50;31.90;;;;;;;-2.75;83.75;98905.09;5078865;28;20117;-46
2020/12/31 02:55:54;;;;;;;69.10;31.25;;;;;;;-2.75;83.75;98907.66;5078468;28;20357;-46
2020/12/31 02:58:19;;;;;;;70.95;33.85;;;;;;;-2.80;83.40;98910.13;5078801;28;20135;-46
2020/12/31 03:00:45;;;;;;;69.25;34.28;;;;;;;-2.80;83.68;98901.59;5078283;28;20475;-46
2020/12/31 03:03:11;;;;;;;69.15;30.95;;;;;;;-2.79;83.62;98913.56;5078612;28;20052;-46
2020/12/31 03:05:37;;;;;;;67.45;32.05;;;;;;;-2.81;83.97;98908.41;5077449;28;20491;-46
2020/12/31 03:08:03;;;;;;;63.75;31.30;;;;;;;-2.79;83.84;98919.56;5060812;28;20052;-46
2020/12/31 03:10:29;;;;;;;61.28;29.90;;;;;;;-2.81;84.07;98921.25;5078512;28;20044;-46
2020/12/31 03:12:54;;;;;;;66.60;31.27;;;;;;;-2.78;84.03;98912.75;5077294;28;20056;-47
2020/12/31 03:15:21;;;;;;;61.05;30.45;;;;;;;-2.77;83.88;98920.44;5078456;28;20068;-46
2020/12/31 03:17:47;;;;;;;66.65;31.80;;;;;;;-2.83;84.09;98905.84;5078187;28;20203;-46
2020/12/31 03:20:13;;;;;;;68.65;32.92;;;;;;;-2.82;83.92;98914.41;5078322;28;20318;-46
2020/12/31 03:22:38;;;;;;;64.18;30.77;;;;;;;-2.80;84.06;98910.13;5078263;28;20063;-46
2020/12/31 03:25:05;;;;;;;65.78;31.02;;;;;;;-2.79;84.30;98908.44;5077429;28;20429;-46
2020/12/31 03:27:31;;;;;;;69.30;31.60;;;;;;;-2.82;84.61;98904.16;5078216;28;20055;-46
2020/12/31 03:29:57;;;;;;;69.40;32.63;;;;;;;-2.84;84.33;98904.09;5077335;28;20052;-46
2020/12/31 03:32:23;;;;;;;63.08;29.77;;;;;;;-2.80;84.22;98910.13;5078163;28;20053;-46
2020/12/31 03:34:48;;;;;;;67.93;31.92;;;;;;;-2.90;83.69;98915.97;5076906;28;20040;-46
2020/12/31 03:37:14;;;;;;;61.90;29.58;;;;;;;-2.87;84.12;98910.91;5076934;28;20041;-46
2020/12/31 03:39:43;;;;;;;66.78;31.67;;;;;;;-2.83;84.13;98920.34;5076805;28;20110;-46
2020/12/31 03:42:09;;;;;;;73.10;32.55;;;;;;;-2.80;84.43;98922.09;5077910;28;20067;-46
2020/12/31 03:44:35;;;;;;;65.93;31.02;;;;;;;-2.76;84.30;98923.84;5076942;28;20044;-46
2020/12/31 03:47:01;;;;;;;60.15;30.58;;;;;;;-2.74;84.22;98929.88;5077582;28;20045;-46
2020/12/31 03:49:27;;;;;;;66.28;31.75;;;;;;;-2.73;84.38;98927.34;5077359;28;20049;-46
2020/12/31 03:51:53;;;;;;;71.57;30.08;;;;;;;-2.74;84.10;98924.75;5077479;28;20052;-46
2020/12/31 03:54:19;;;;;;;64.45;32.55;;;;;;;-2.73;84.19;98926.47;5077470;28;20040;-46
2020/12/31 03:56:44;;;;;;;66.28;31.02;;;;;;;-2.73;84.18;98927.34;5077336;28;20444;-46
2020/12/31 03:59:10;;;;;;;81.32;35.03;;;;;;;-2.82;85.40;98920.38;5077257;28;20048;-46
2020/12/31 04:01:36;;;;;;;70.53;31.45;;;;;;;-2.74;84.99;98929.88;5077145;28;20084;-46
2020/12/31 04:04:02;;;;;;;71.15;31.45;;;;;;;-2.73;84.64;98929.03;5077429;28;20314;-46
2020/12/31 04:06:28;;;;;;;64.82;29.70;;;;;;;-2.70;84.27;98935.06;5076618;28;20056;-46
2020/12/31 04:08:54;;;;;;;70.15;32.10;;;;;;;-2.73;83.96;98940.16;5077186;28;20048;-46
2020/12/31 04:11:20;;;;;;;81.22;35.38;;;;;;;-2.79;84.29;98941.75;5077305;28;20044;-46
2020/12/31 04:13:46;;;;;;;80.70;37.38;;;;;;;-2.80;84.22;98945.16;5076964;28;20379;-46
2020/12/31 04:16:12;;;;;;;70.20;33.15;;;;;;;-2.85;83.65;98935.72;5077281;28;20044;-46
2020/12/31 04:18:38;;;;;;;75.65;33.63;;;;;;;-2.85;84.42;98937.41;5076121;28;20044;-46
2020/12/31 04:21:03;;;;;;;76.53;35.30;;;;;;;-2.92;83.85;98944.16;5076320;28;20376;-46
2020/12/31 04:23:29;;;;;;;67.93;32.35;;;;;;;-2.88;84.37;98943.34;5077040;28;20040;-46
2020/12/31 04:25:55;;;;;;;60.45;29.00;;;;;;;-2.84;84.08;98934.00;5077106;28;20063;-46
2020/12/31 04:28:21;;;;;;;62.58;30.92;;;;;;;-2.85;83.58;98935.72;5076775;28;20494;-46
2020/12/31 04:30:47;;;;;;;68.65;32.15;;;;;;;-2.85;83.42;98942.53;5076719;28;20037;-46
2020/12/31 04:33:13;;;;;;;66.90;32.22;;;;;;;-2.88;83.51;98938.22;5076048;28;20044;-46
2020/12/31 04:35:39;;;;;;;75.85;33.45;;;;;;;-2.96;82.36;98942.38;5076878;28;20109;-46
2020/12/31 04:38:05;;;;;;;65.25;33.08;;;;;;;-2.95;83.06;98941.53;5076806;28;20048;-46
2020/12/31 04:40:31;;;;;;;67.53;33.47;;;;;;;-2.97;83.61;98945.78;5076767;28;20379;-46
2020/12/31 04:42:57;;;;;;;80.85;37.20;;;;;;;-2.97;83.45;98947.47;5076734;28;20385;-46
2020/12/31 04:45:23;;;;;;;79.22;34.70;;;;;;;-3.01;83.41;98941.44;5059330;28;20075;-46
2020/12/31 04:48:36;;;;;;;75.55;34.28;;;;;;;-3.00;83.93;98960.25;5059228;28;20360;-46
2020/12/31 04:51:02;;;;;;;79.70;34.17;;;;;;;-3.04;83.64;98956.78;5054862;28;20059;-46
2020/12/31 04:53:28;;;;;;;76.47;33.33;;;;;;;-3.02;83.95;98964.47;5054762;28;20041;-46
2020/12/31 04:55:54;;;;;;;72.72;33.80;;;;;;;-3.04;83.19;98973.84;5066314;28;20056;-46
2020/12/31 04:58:20;;;;;;;65.13;32.10;;;;;;;-3.05;83.12;98975.56;5075423;28;20037;-46
2020/12/31 05:00:46;;;;;;;80.80;34.05;;;;;;;-3.12;82.93;98977.16;5075378;28;20114;-46
2020/12/31 05:03:12;;;;;;;76.40;34.17;;;;;;;-3.10;83.16;98979.72;5075540;28;20079;-46
2020/12/31 05:05:38;;;;;;;74.72;35.72;;;;;;;-3.12;83.08;98979.72;5076157;28;20056;-46
2020/12/31 05:08:04;;;;;;;67.88;33.08;;;;;;;-3.17;83.41;98985.59;5058908;28;20048;-46
2020/12/31 05:10:30;;;;;;;74.47;33.97;;;;;;;-3.15;83.52;98989.91;5076423;28;20052;-46
2020/12/31 05:13:04;;;;;;;72.53;32.92;;;;;;;-3.12;83.49;98986.53;5076112;28;20047;-46
2020/12/31 05:15:38;;;;;;;72.80;35.45;;;;;;;-3.19;83.31;98993.25;5076043;28;20075;-46
2020/12/31 05:18:17;;;;;;;82.22;38.60;;;;;;;-3.13;83.56;98992.50;5076663;28;20041;-46
2020/12/31 05:20:46;;;;;;;74.95;36.03;;;;;;;-3.10;83.75;99001.09;5076690;28;20052;-46
2020/12/31 05:23:19;;;;;;;79.70;35.95;;;;;;;-3.09;84.13;98992.59;5076130;28;20097;-46
2020/12/31 05:25:45;;;;;;;73.40;35.08;;;;;;;-3.06;84.49;98994.31;5076069;28;20492;-46
2020/12/31 05:28:21;;;;;;;76.68;34.28;;;;;;;-2.99;84.76;98993.59;5075912;28;20087;-46
2020/12/31 05:30:49;;;;;;;74.00;32.83;;;;;;;-2.95;84.94;98990.25;5076339;28;20048;-55
2020/12/31 05:33:35;;;;;;;70.93;35.38;;;;;;;-2.96;85.05;98991.06;5076220;28;20044;-54
2020/12/31 05:36:25;;;;;;;68.80;32.97;;;;;;;-2.98;85.09;98990.19;5076557;28;20153;-54
2020/12/31 05:39:01;;;;;;;77.78;33.65;;;;;;;-2.97;84.63;98989.34;5075760;28;20103;-54
2020/12/31 05:41:34;;;;;;;73.25;33.40;;;;;;;-3.02;84.24;98984.97;5076182;28;20466;-53
2020/12/31 05:44:06;;;;;;;67.13;32.53;;;;;;;-2.99;84.22;98982.47;5076248;28;20056;-54
2020/12/31 05:46:39;;;;;;;76.18;33.30;;;;;;;-3.10;83.60;98980.59;5076274;28;20060;-54
2020/12/31 05:49:05;;;;;;;74.53;34.72;;;;;;;-3.07;84.16;98978.09;5075790;28;20036;-54
2020/12/31 05:51:32;;;;;;;65.47;31.63;;;;;;;-3.02;84.19;98980.72;5074818;28;20067;-55
2020/12/31 05:54:11;;;;;;;65.88;30.85;;;;;;;-3.06;83.62;98989.19;5075696;28;20052;-53
2020/12/31 05:56:38;;;;;;;71.80;31.90;;;;;;;-3.14;83.68;98985.66;5075916;28;20040;-55
2020/12/31 05:59:22;;;;;;;68.15;32.53;;;;;;;-3.11;83.63;98991.69;5075946;28;20048;-54
2020/12/31 06:01:58;;;;;;;62.55;28.80;;;;;;;-3.06;83.61;98996.88;5075086;28;20064;-53
2020/12/31 06:04:30;;;;;;;68.05;31.63;;;;;;;-3.11;83.60;99006.19;5075897;28;20044;-52
2020/12/31 06:07:00;;;;;;;64.32;30.33;;;;;;;-3.10;83.49;98997.66;5076139;28;20044;-53
2020/12/31 06:09:33;;;;;;;66.93;30.25;;;;;;;-3.14;83.72;99001.88;5076387;28;20121;-53
2020/12/31 06:12:04;;;;;;;65.25;30.25;;;;;;;-3.09;84.14;99007.06;5077995;28;20056;-52
2020/12/31 06:14:31;;;;;;;65.10;31.42;;;;;;;-3.10;84.17;99005.34;5079321;28;20053;-53
2020/12/31 06:16:58;;;;;;;70.88;32.95;;;;;;;-3.06;83.90;99007.13;5078390;28;20441;-53
2020/12/31 06:19:38;;;;;;;67.78;30.15;;;;;;;-3.06;83.84;99010.53;5079504;28;20048;-52
2020/12/31 06:22:04;;;;;;;65.93;29.40;;;;;;;-3.06;83.54;99012.25;5079415;28;20040;-54
2020/12/31 06:24:45;;;;;;;63.55;31.13;;;;;;;-3.06;83.46;99007.13;5079083;28;20041;-53
2020/12/31 06:27:15;;;;;;;71.43;32.65;;;;;;;-3.11;83.45;99011.31;5079411;28;20079;-52
2020/12/31 06:29:41;;;;;;;70.75;32.65;;;;;;;-3.12;83.94;99023.28;5078473;28;20059;-52
2020/12/31 06:32:19;;;;;;;70.05;31.50;;;;;;;-3.12;83.85;99020.72;5078145;28;20041;-54
2020/12/31 06:34:45;;;;;;;65.68;32.75;;;;;;;-3.12;83.72;99015.59;5061557;28;20334;-53
2020/12/31 06:37:11;;;;;;;63.65;29.85;;;;;;;-3.14;83.59;99024.94;5079185;28;20059;-54
2020/12/31 06:39:38;;;;;;;68.47;32.03;;;;;;;-3.18;83.56;99022.31;5078287;28;20361;-54
2020/12/31 06:42:04;;;;;;;62.60;29.77;;;;;;;-3.18;83.88;99025.72;5078813;28;20117;-53
2020/12/31 06:44:30;;;;;;;64.30;30.95;;;;;;;-3.14;83.50;99027.50;5078676;28;20048;-52
2020/12/31 06:46:56;;;;;;;70.13;31.05;;;;;;;-3.14;83.48;99016.41;5078769;28;20177;-53
2020/12/31 06:49:22;;;;;;;79.72;34.17;;;;;;;-3.17;83.36;99021.47;5078091;28;20045;-54
2020/12/31 06:51:48;;;;;;;98.47;42.88;;;;;;;-3.19;83.24;99013.75;5078908;28;20063;-53
2020/12/31 06:54:27;;;;;;;112.30;50.22;;;;;;;-3.24;83.00;99014.50;5078907;28;20059;-52
2020/12/31 06:56:53;;;;;;;134.80;53.75;;;;;;;-3.27;83.31;99024.72;5079089;28;20044;-52
2020/12/31 06:59:34;;;;;;;137.80;58.33;;;;;;;-3.26;83.58;99018.75;5078693;28;20106;-53
2020/12/31 07:02:11;;;;;;;141.70;61.47;;;;;;;-3.32;83.61;99016.91;5078735;28;20040;-53
2020/12/31 07:04:41;;;;;;;129.95;59.60;;;;;;;-3.33;83.97;99013.50;5078685;28;20052;-54
2020/12/31 07:07:19;;;;;;;124.00;56.40;;;;;;;-3.33;83.93;99012.66;5078120;28;20043;-53
2020/12/31 07:09:58;;;;;;;99.05;44.70;;;;;;;-3.32;84.17;99010.09;5078341;28;20353;-53
2020/12/31 07:12:47;;;;;;;104.20;48.83;;;;;;;-3.29;84.11;99014.41;5078627;28;20041;-53
2020/12/31 07:15:15;;;;;;;97.93;46.58;;;;;;;-3.31;83.85;99011.00;5078519;28;20318;-53
2020/12/31 07:17:42;;;;;;;97.32;46.10;;;;;;;-3.26;83.77;99018.75;5078465;28;20048;-54
2020/12/31 07:20:11;;;;;;;95.97;43.97;;;;;;;-3.23;83.77;99021.34;5078300;28;20067;-53
2020/12/31 07:22:37;;;;;;;99.10;43.55;;;;;;;-3.22;83.63;99018.81;5077863;28;20053;-53
2020/12/31 07:25:06;;;;;;;198.00;71.00;;;;;;;-3.22;83.77;99018.81;5077111;28;20061;-53
2020/12/31 07:27:33;;;;;;;135.43;54.53;;;;;;;-3.21;84.13;99015.44;5077378;28;20045;-53
2020/12/31 07:30:07;;;;;;;115.55;50.45;;;;;;;-3.19;84.00;99021.41;5078175;28;20055;-53
2020/12/31 07:32:55;;;;;;;100.05;43.78;;;;;;;-3.22;84.09;99023.94;5077452;28;20075;-54
2020/12/31 07:35:23;;;;;;;134.43;64.03;;;;;;;-3.18;84.82;99023.16;5076305;28;20058;-56
2020/12/31 07:37:56;;;;;;;267.88;127.60;;;;;;;-3.12;84.76;99019.81;5076777;28;20326;-53
2020/12/31 07:40:38;;;;;;;594.53;265.60;;;;;;;-3.13;85.28;99023.22;5076758;28;20048;-53
2020/12/31 07:43:05;;;;;;;519.58;229.10;;;;;;;-3.12;86.05;99018.16;5075839;28;20742;-55
2020/12/31 07:45:31;;;;;;;684.33;257.00;;;;;;;-3.02;85.83;99023.41;5075777;28;20048;-54
2020/12/31 07:47:57;;;;;;;676.85;270.15;;;;;;;-2.96;85.47;99023.50;5077397;28;20048;-55
2020/12/31 07:50:23;;;;;;;424.52;159.48;;;;;;;-2.93;85.44;99021.00;5077769;28;20391;-55
2020/12/31 07:52:49;;;;;;;450.38;155.82;;;;;;;-2.87;85.24;99019.41;5078493;28;20063;-54
2020/12/31 07:55:16;;;;;;;321.48;118.72;;;;;;;-2.88;85.03;99020.25;5077743;28;20421;-55
2020/12/31 07:57:42;;;;;;;193.70;81.40;;;;;;;-2.77;85.60;99019.56;5077325;28;20048;-54
2020/12/31 08:00:15;;;;;;;136.75;58.58;;;;;;;-2.71;85.29;99024.78;5077151;28;20068;-53
2020/12/31 08:02:51;;;;;;;;;;;;;;;-2.75;85.95;99018.75;5078374;28;20051;-53
2020/12/31 08:05:18;;;;;;;186.48;63.45;;;;;;;-2.68;85.97;99019.69;5076698;28;19970;-54
2020/12/31 08:07:44;;;;;;;138.00;55.42;;;;;;;-2.59;85.69;99020.69;5077734;28;20421;-53
2020/12/31 08:10:10;;;;;;;123.55;52.45;;;;;;;-2.52;85.35;99016.53;5076836;28;20105;-54
2020/12/31 08:12:38;;;;;;;145.25;56.83;;;;;;;-2.45;85.49;99015.75;5077331;28;20056;-53
2020/12/31 08:15:05;;;;;;;198.55;72.47;;;;;;;-2.41;85.51;99014.97;5076672;28;20056;-56
2020/12/31 08:17:30;;;;;;;260.70;95.88;;;;;;;-2.40;85.31;99015.84;5076191;28;20045;-54
2020/12/31 08:19:56;;;;;;;228.25;90.30;;;;;;;-2.30;85.08;99014.28;5076918;28;20364;-54
2020/12/31 08:22:30;;;;;;;206.27;87.32;;;;;;;-2.24;84.75;99017.78;5076338;28;20048;-55
2020/12/31 08:25:11;;;;;;;206.60;85.03;;;;;;;-2.22;84.35;99021.22;5076220;28;20055;-55
2020/12/31 08:27:41;;;;;;;213.00;88.57;;;;;;;-2.17;84.43;99021.28;5077120;28;20060;-55
2020/12/31 08:30:12;;;;;;;238.80;98.65;;;;;;;-2.12;84.29;99023.06;5076944;28;20052;-57
2020/12/31 08:32:51;;;;;;;265.67;105.55;;;;;;;-2.09;84.15;99022.25;5076999;28;20052;-55
2020/12/31 08:35:20;;;;;;;263.58;103.50;;;;;;;-1.95;84.55;99023.31;5077051;28;20444;-53
2020/12/31 08:38:06;;;;;;;288.92;114.85;;;;;;;-1.83;84.30;99025.13;5076957;28;20053;-46
2020/12/31 08:40:33;;;;;;;334.67;124.25;;;;;;;-1.70;84.62;99026.16;5076329;28;20437;-46
2020/12/31 08:42:59;;;;;;;344.52;124.93;;;;;;;-1.42;84.71;99028.19;5075803;28;20057;-46
2020/12/31 08:45:26;;;;;;;339.15;126.72;;;;;;;-1.11;84.39;99036.19;5076745;28;20506;-46
2020/12/31 08:47:52;;;;;;;331.50;126.15;;;;;;;-0.84;83.94;99045.03;5076758;28;20122;-46
2020/12/31 08:50:18;;;;;;;380.33;137.48;;;;;;;-0.62;83.49;99039.16;5076673;28;20128;-46
2020/12/31 08:52:44;;;;;;;387.65;136.52;;;;;;;-0.44;83.40;99038.44;5076421;28;20048;-46
2020/12/31 08:55:11;;;;;;;329.17;119.22;;;;;;;-0.18;83.10;99038.63;5076591;28;20123;-46
2020/12/31 08:57:36;;;;;;;333.17;118.13;;;;;;;0.16;82.64;99043.94;5076422;28;20037;-46
2020/12/31 09:00:03;;;;;;;439.33;153.95;;;;;;;0.46;82.09;99045.78;5076146;28;20437;-46
2020/12/31 09:02:29;;;;;;;493.48;188.82;;;;;;;0.80;81.92;99036.41;5069873;28;20062;-46
2020/12/31 09:05:25;;;;;;;390.13;154.60;;;;;;;1.12;80.90;99044.19;5074276;28;20402;-46
2020/12/31 09:07:51;;;;;;;344.95;144.10;;;;;;;1.42;81.11;99049.38;5064844;28;20067;-45
2020/12/31 09:10:18;;;;;;;287.58;128.05;;;;;;;1.68;80.73;99046.75;5057068;28;20052;-46
2020/12/31 09:12:44;;;;;;;260.65;118.88;;;;;;;1.90;80.15;99045.88;5074958;28;20052;-46
2020/12/31 09:15:19;;;;;;;207.32;98.03;;;;;;;2.14;79.96;99044.06;5074647;28;20044;-45
2020/12/31 09:17:45;;;;;;;230.52;103.05;;;;;;;2.36;79.86;99037.13;5074671;28;20052;-46
2020/12/31 09:20:28;;;;;;;209.80;101.80;;;;;;;2.58;79.05;99039.59;5076338;28;20048;-46
2020/12/31 09:23:07;;;;;;;210.00;100.05;;;;;;;2.79;79.09;99040.31;5076049;28;20060;-46
2020/12/31 09:25:32;;;;;;;172.50;84.30;;;;;;;2.94;79.21;99041.97;5076573;28;20040;-47
2020/12/31 09:27:58;;;;;;;160.93;78.63;;;;;;;3.14;78.62;99039.25;5076247;28;20066;-46
2020/12/31 09:30:28;;;;;;;141.93;67.28;;;;;;;3.27;78.49;99043.47;5058310;28;20437;-47
2020/12/31 09:32:53;;;;;;;120.85;61.05;;;;;;;3.36;78.31;99039.94;5075868;28;20040;-47
2020/12/31 09:35:19;;;;;;;128.07;67.90;;;;;;;3.53;78.15;99040.66;5076155;28;20051;-47
2020/12/31 09:37:55;;;;;;;152.95;74.93;;;;;;;3.62;77.50;99038.00;5075936;28;20041;-47
2020/12/31 09:40:21;;;;;;;175.98;85.78;;;;;;;3.75;77.86;99047.34;5075892;28;20105;-47
2020/12/31 09:42:47;;;;;;;169.45;89.18;;;;;;;3.92;77.36;99030.78;5075272;28;20437;-47
2020/12/31 09:45:12;;;;;;;183.82;93.43;;;;;;;4.10;77.21;99030.59;5075692;28;20059;-47
2020/12/31 09:47:38;;;;;;;191.40;95.80;;;;;;;4.26;77.06;99030.41;5078898;28;20056;-47
2020/12/31 09:50:05;;;;;;;175.27;88.03;;;;;;;4.40;76.82;99031.09;5080117;28;20059;-47
2020/12/31 09:52:32;;;;;;;163.60;81.82;;;;;;;4.56;76.32;99032.63;5078939;28;20102;-47
2020/12/31 09:54:58;;;;;;;153.25;76.68;;;;;;;4.69;76.09;99030.72;5079780;28;20445;-47
2020/12/31 09:57:25;;;;;;;138.73;68.55;;;;;;;4.81;75.91;99030.56;5079968;28;20056;-47
2020/12/31 09:59:50;;;;;;;133.65;68.97;;;;;;;4.91;75.73;99034.75;5078666;28;20080;-47
2020/12/31 10:02:16;;;;;;;186.48;99.25;;;;;;;4.99;75.14;99037.22;5079053;28;20437;-47
2020/12/31 10:04:42;;;;;;;185.07;95.53;;;;;;;5.01;74.20;99032.88;5078650;28;20044;-46
2020/12/31 10:07:08;;;;;;;194.07;99.97;;;;;;;4.99;74.01;99029.44;5080097;28;20059;-47
2020/12/31 10:09:34;;;;;;;321.67;161.55;;;;;;;5.01;73.90;99025.09;5079722;28;20048;-47
2020/12/31 10:11:59;;;;;;;223.48;121.70;;;;;;;4.97;74.06;99031.16;5079674;28;20090;-46
2020/12/31 10:14:25;;;;;;;184.95;99.40;;;;;;;4.95;74.32;99032.97;5079565;28;20036;-46
2020/12/31 10:16:51;;;;;;;219.77;109.93;;;;;;;4.99;74.40;99021.63;5079016;28;20052;-46
2020/12/31 10:19:17;;;;;;;180.80;90.97;;;;;;;4.98;74.15;99019.94;5078702;28;20049;-46
2020/12/31 10:21:47;;;;;;;174.90;86.97;;;;;;;4.98;74.17;99014.75;5079327;28;20433;-46
2020/12/31 10:24:13;;;;;;;172.85;85.47;;;;;;;4.92;74.18;99015.69;5078530;28;20044;-46
2020/12/31 10:26:39;;;;;;;153.13;82.88;;;;;;;4.85;74.17;99019.25;5078225;28;20044;-46
2020/12/31 10:29:05;;;;;;;131.32;72.93;;;;;;;4.74;74.09;99025.47;5079665;28;20098;-46
2020/12/31 10:31:31;;;;;;;131.13;69.72;;;;;;;4.77;74.19;99022.81;5079309;28;20110;-46
2020/12/31 10:33:57;;;;;;;150.15;81.75;;;;;;;4.79;74.37;99015.91;5079229;28;20048;-46
2020/12/31 10:36:23;;;;;;;130.43;72.10;;;;;;;4.77;74.28;99021.09;5079511;28;20119;-46
2020/12/31 10:38:49;;;;;;;100.13;57.53;;;;;;;4.72;74.37;99016.88;5079163;28;20110;-46
2020/12/31 10:41:15;;;;;;;86.88;47.10;;;;;;;4.68;74.31;99016.91;5079129;28;20056;-46
2020/12/31 10:43:41;;;;;;;84.05;45.30;;;;;;;4.69;74.44;99010.81;5079006;28;20045;-46
2020/12/31 10:46:07;;;;;;;76.72;42.85;;;;;;;4.73;74.59;99010.78;5077946;28;20354;-46
2020/12/31 10:48:32;;;;;;;83.05;43.53;;;;;;;4.71;74.36;99007.34;5079001;28;20054;-47
2020/12/31 10:50:58;;;;;;;78.65;42.15;;;;;;;4.76;74.69;99010.75;5078627;28;20063;-46
2020/12/31 10:53:25;;;;;;;70.72;40.10;;;;;;;4.78;74.47;99009.00;5078922;28;20049;-46
2020/12/31 10:55:50;;;;;;;78.25;42.80;;;;;;;4.73;74.71;99008.19;5078623;28;20068;-46
2020/12/31 10:58:16;;;;;;;77.95;40.20;;;;;;;4.67;75.04;99007.38;5077590;28;20138;-46
2020/12/31 11:00:42;;;;;;;74.35;40.83;;;;;;;4.68;75.34;99008.28;5078355;28;20131;-47
2020/12/31 11:03:08;;;;;;;75.70;39.33;;;;;;;4.74;75.06;98999.53;5078959;28;20040;-46
2020/12/31 11:05:34;;;;;;;67.75;37.40;;;;;;;4.81;75.09;98995.94;5078720;28;20052;-47
2020/12/31 11:08:00;;;;;;;74.65;38.33;;;;;;;4.87;75.32;98991.53;5077479;28;20133;-47
2020/12/31 11:10:25;;;;;;;70.82;38.15;;;;;;;4.89;75.24;98992.38;5078410;28;20044;-47
2020/12/31 11:12:51;;;;;;;67.35;36.70;;;;;;;4.95;75.32;98990.56;5078286;28;20334;-47
2020/12/31 11:15:17;;;;;;;65.55;34.80;;;;;;;5.02;75.58;98993.03;5077359;28;20045;-47
2020/12/31 11:17:43;;;;;;;51.60;28.70;;;;;;;5.06;75.41;98979.13;5077637;28;20074;-47